Time;durP1;ratioP1;P1;durP2;ratioP2;P2;SDS_P1;SDS_P2;PMS_P1;PMS_P2;Temp;Humidity;BMP_temperature;BMP_pressure;BME280_temperature;BME280_humidity;BME280_pressure;Samples;Min_cycle;Max_cycle;Signal;HPM_P1;HPM_P2
2023/03/01 00:01:38;;;;;;;31.70;14.30;;;-4.80;99.90;;;;;;4428111;28;659434;-72
2023/03/01 00:04:25;;;;;;;28.90;11.33;;;-4.80;99.90;;;;;;4413693;28;658331;-72
2023/03/01 00:07:12;;;;;;;26.83;10.47;;;-4.80;99.90;;;;;;4424384;28;659183;-72
2023/03/01 00:10:00;;;;;;;29.67;11.20;;;-4.90;99.90;;;;;;4424364;28;658977;-72
2023/03/01 00:12:49;;;;;;;25.77;10.57;;;-4.90;1.00;;;;;;4423265;28;659630;-72
2023/03/01 00:15:39;;;;;;;25.57;10.37;;;-4.90;1.00;;;;;;4406069;28;657731;-72
2023/03/01 00:18:26;;;;;;;28.97;11.83;;;-4.90;41.30;;;;;;4404494;28;657853;-72
2023/03/01 00:21:14;;;;;;;32.10;13.27;;;-4.90;99.90;;;;;;4420595;28;659158;-72
2023/03/01 00:24:01;;;;;;;32.07;13.13;;;-4.90;99.90;;;;;;4400533;28;659371;-72
2023/03/01 00:26:48;;;;;;;35.47;12.93;;;-4.90;99.90;;;;;;4419351;28;658062;-72
2023/03/01 00:29:37;;;;;;;30.07;12.20;;;-4.80;99.90;;;;;;4403707;28;659945;-72
2023/03/01 00:32:24;;;;;;;34.17;13.23;;;-4.80;99.90;;;;;;4418682;28;658547;-72
2023/03/01 00:35:11;;;;;;;38.35;13.80;;;-4.80;99.90;;;;;;4402894;28;658718;-72
2023/03/01 00:37:58;;;;;;;33.67;15.07;;;-4.80;99.90;;;;;;4427022;28;658558;-72
2023/03/01 00:40:46;;;;;;;35.73;14.27;;;-4.80;93.30;;;;;;4407515;28;658593;-72
2023/03/01 00:43:36;;;;;;;38.37;15.40;;;-4.80;99.90;;;;;;4427227;28;658947;-72
2023/03/01 00:46:25;;;;;;;32.70;14.90;;;-4.70;99.90;;;;;;4400268;28;659451;-72
2023/03/01 00:49:12;;;;;;;30.70;12.97;;;-4.70;99.90;;;;;;4401391;28;659410;-72
2023/03/01 00:52:00;;;;;;;38.37;14.23;;;-4.70;99.90;;;;;;4418242;28;658969;-72
2023/03/01 00:54:47;;;;;;;31.80;13.63;;;-4.70;99.90;;;;;;4425189;28;659604;-72
2023/03/01 00:57:35;;;;;;;27.83;12.03;;;-4.80;1.00;;;;;;4420378;28;658518;-72
2023/03/01 01:00:23;;;;;;;30.27;12.83;;;-4.80;1.00;;;;;;4421242;28;659360;-72
2023/03/01 01:03:12;;;;;;;33.73;13.67;;;-4.80;1.00;;;;;;4419721;28;657860;-72
2023/03/01 01:05:59;;;;;;;34.60;13.33;;;-4.80;1.00;;;;;;4422750;28;657926;-72
2023/03/01 01:08:46;;;;;;;36.77;13.60;;;-4.80;99.90;;;;;;4405548;28;657746;-72
2023/03/01 01:11:34;;;;;;;28.25;12.82;;;-4.80;99.90;;;;;;4424299;28;658941;-72
2023/03/01 01:14:21;;;;;;;36.63;13.17;;;-4.80;55.50;;;;;;4402395;28;659234;-72
2023/03/01 01:17:09;;;;;;;33.27;13.00;;;-4.80;1.00;;;;;;4421534;28;659366;-72
2023/03/01 01:19:57;;;;;;;36.17;12.30;;;-4.90;1.00;;;;;;4404210;28;657775;-72
2023/03/01 01:22:45;;;;;;;28.83;11.40;;;-4.90;1.00;;;;;;4425867;28;657453;-72
2023/03/01 01:25:32;;;;;;;35.50;13.37;;;-4.90;99.90;;;;;;4403548;28;657766;-72
2023/03/01 01:28:19;;;;;;;30.50;12.73;;;-4.90;99.90;;;;;;4420419;28;658807;-73
2023/03/01 01:31:07;;;;;;;36.15;13.90;;;-4.90;1.00;;;;;;4398424;28;658361;-72
2023/03/01 01:33:54;;;;;;;28.80;12.23;;;-5.00;1.00;;;;;;4427454;28;657458;-72
2023/03/01 01:36:42;;;;;;;31.53;12.23;;;-5.00;1.00;;;;;;4405393;28;657579;-72
2023/03/01 01:39:30;;;;;;;29.60;12.70;;;-5.00;99.90;;;;;;4421586;28;657920;-72
2023/03/01 01:42:18;;;;;;;31.87;12.90;;;-5.00;1.00;;;;;;4427321;28;658979;-72
2023/03/01 01:45:36;;;;;;;31.83;12.18;;;-5.00;1.00;;;;;;4409896;28;658269;-74
2023/03/01 01:48:24;;;;;;;27.80;11.17;;;-5.00;99.90;;;;;;4338167;28;658225;-75
2023/03/01 01:51:13;;;;;;;32.17;12.47;;;-5.00;99.90;;;;;;4400866;28;659344;-75
2023/03/01 01:54:02;;;;;;;29.33;12.47;;;-5.10;99.90;;;;;;4406332;28;659276;-74
2023/03/01 01:56:52;;;;;;;28.83;12.20;;;-5.10;99.90;;;;;;4422518;28;658741;-75
2023/03/01 01:59:39;;;;;;;31.13;12.60;;;-5.10;99.90;;;;;;4408842;28;659021;-75
2023/03/01 02:02:26;;;;;;;30.53;12.53;;;-5.10;99.90;;;;;;4408559;28;658853;-75
2023/03/01 02:05:21;;;;;;;28.87;11.77;;;-5.10;99.90;;;;;;4423251;28;658342;-74
2023/03/01 02:08:08;;;;;;;31.63;12.23;;;-5.10;1.00;;;;;;4402177;28;658692;-75
2023/03/01 02:10:57;;;;;;;28.97;11.80;;;-5.10;1.00;;;;;;4407628;28;657547;-74
2023/03/01 02:13:44;;;;;;;26.83;11.13;;;-5.10;99.90;;;;;;4430338;28;657573;-74
2023/03/01 02:16:31;;;;;;;25.80;11.37;;;-5.20;9.20;;;;;;4404356;28;658526;-74
2023/03/01 02:19:24;;;;;;;29.97;11.73;;;-5.20;39.50;;;;;;4427185;28;657535;-74
2023/03/01 02:22:16;;;;;;;25.63;10.40;;;-5.20;99.90;;;;;;4377696;28;659333;-74
2023/03/01 02:25:13;;;;;;;28.97;11.03;;;-5.20;1.00;;;;;;4406857;28;659826;-74
2023/03/01 02:28:07;;;;;;;25.47;11.37;;;-5.20;1.00;;;;;;4380987;28;657814;-74
2023/03/01 02:34:00;;;;;;;26.97;10.93;;;-5.20;1.00;;;;;;4383939;28;658513;-74
2023/03/01 02:36:49;;;;;;;26.10;11.07;;;-5.30;1.00;;;;;;4425733;28;657755;-74
2023/03/01 02:39:41;;;;;;;29.10;10.87;;;-5.30;1.00;;;;;;4405674;28;657635;-74
2023/03/01 02:42:31;;;;;;;30.53;11.97;;;-5.20;1.00;;;;;;4404524;28;658204;-74
2023/03/01 02:45:19;;;;;;;26.40;11.63;;;-5.30;99.90;;;;;;4396846;28;657831;-74
2023/03/01 02:48:08;;;;;;;31.53;11.33;;;-5.30;1.00;;;;;;4401668;28;658752;-74
2023/03/01 02:51:05;;;;;;;23.00;10.03;;;-5.40;1.00;;;;;;4415386;28;656999;-74
2023/03/01 02:53:57;;;;;;;26.37;10.70;;;-5.40;1.00;;;;;;4375759;28;658113;-75
2023/03/01 02:56:48;;;;;;;29.73;11.37;;;-5.40;1.00;;;;;;4342435;28;658209;-74
2023/03/01 02:59:39;;;;;;;32.57;11.57;;;-5.40;1.00;;;;;;4239167;28;657758;-74
2023/03/01 03:02:36;;;;;;;29.23;10.97;;;-5.40;1.00;;;;;;4231602;28;657778;-74
2023/03/01 03:05:26;;;;;;;29.50;11.77;;;-5.40;1.00;;;;;;4397457;28;657921;-74
2023/03/01 03:08:16;;;;;;;23.40;10.37;;;-5.40;1.00;;;;;;4396740;28;658217;-74
2023/03/01 03:11:03;;;;;;;27.70;10.93;;;-5.40;1.00;;;;;;4394868;28;658371;-74
2023/03/01 03:13:51;;;;;;;29.50;11.30;;;-5.40;1.00;;;;;;4405815;28;658225;-74
2023/03/01 03:16:40;;;;;;;23.77;11.40;;;-5.40;1.00;;;;;;4423333;28;657977;-74
2023/03/01 03:19:27;;;;;;;24.23;11.17;;;-5.40;1.00;;;;;;4393385;28;658136;-75
2023/03/01 03:22:17;;;;;;;27.10;11.00;;;-5.50;1.00;;;;;;4408460;28;657611;-74
2023/03/01 03:25:04;;;;;;;22.63;9.83;;;-5.50;1.00;;;;;;4420353;28;657661;-74
2023/03/01 03:27:56;;;;;;;24.63;9.90;;;-5.50;99.90;;;;;;4405496;28;656607;-74
2023/03/01 03:30:43;;;;;;;26.73;10.50;;;-5.50;1.00;;;;;;4405367;28;658130;-74
2023/03/01 03:33:30;;;;;;;22.77;9.90;;;-5.50;1.00;;;;;;4399612;28;657997;-74
2023/03/01 03:36:18;;;;;;;26.60;9.80;;;-5.50;1.00;;;;;;4417008;28;656868;-74
2023/03/01 03:39:07;;;;;;;25.13;9.63;;;-5.60;1.00;;;;;;4419985;28;656861;-74
2023/03/01 03:41:54;;;;;;;25.53;9.20;;;-5.60;1.00;;;;;;4431553;28;656007;-74
2023/03/01 03:44:41;;;;;;;24.70;10.03;;;-5.60;1.00;;;;;;4408345;28;656427;-74
2023/03/01 03:47:28;;;;;;;24.80;9.87;;;-5.60;1.00;;;;;;4420807;28;658068;-74
2023/03/01 03:50:17;;;;;;;21.87;9.67;;;-5.70;55.00;;;;;;4406923;28;656399;-74
2023/03/01 03:53:05;;;;;;;23.83;10.13;;;-5.80;7.70;;;;;;4421060;28;657830;-75
2023/03/01 03:55:54;;;;;;;25.77;10.10;;;-5.70;44.60;;;;;;4409818;28;657939;-74
2023/03/01 03:58:41;;;;;;;25.73;9.83;;;-5.80;11.50;;;;;;4401620;28;658614;-74
2023/03/01 04:01:29;;;;;;;24.13;9.30;;;-5.80;99.90;;;;;;4425545;28;658166;-75
2023/03/01 04:04:18;;;;;;;24.53;9.93;;;-5.80;1.00;;;;;;4408421;28;658247;-74
2023/03/01 04:07:06;;;;;;;21.80;9.73;;;-5.80;1.00;;;;;;4413896;28;656282;-74
2023/03/01 04:09:53;;;;;;;23.40;9.53;;;-5.90;96.60;;;;;;4421709;28;656959;-74
2023/03/01 04:12:43;;;;;;;23.20;10.18;;;-5.90;99.90;;;;;;4410718;28;657547;-74
2023/03/01 04:15:31;;;;;;;25.60;9.20;;;-5.90;1.00;;;;;;4413387;28;659012;-75
2023/03/01 04:18:18;;;;;;;25.10;9.53;;;-5.90;1.00;;;;;;4431302;28;657238;-74
2023/03/01 04:21:06;;;;;;;23.50;9.97;;;-5.90;99.90;;;;;;4405514;28;656525;-74
2023/03/01 04:23:53;;;;;;;24.53;10.77;;;-5.90;1.00;;;;;;4418976;28;658160;-75
2023/03/01 04:26:40;;;;;;;24.25;10.23;;;-5.90;1.00;;;;;;4400237;28;657531;-75
2023/03/01 04:29:29;;;;;;;25.20;9.80;;;-5.90;99.90;;;;;;4425984;28;657854;-75
2023/03/01 04:32:17;;;;;;;24.20;10.15;;;-5.90;99.90;;;;;;4403345;28;657521;-75
2023/03/01 04:35:05;;;;;;;21.73;9.17;;;-5.90;99.90;;;;;;4412424;28;658639;-75
2023/03/01 04:37:52;;;;;;;19.97;8.73;;;-6.00;1.00;;;;;;4405135;28;658484;-74
2023/03/01 04:40:42;;;;;;;22.97;9.57;;;-6.00;99.90;;;;;;4418169;28;656712;-74
2023/03/01 04:43:29;;;;;;;18.93;8.57;;;-6.00;1.00;;;;;;4428226;28;657219;-74
2023/03/01 04:46:19;;;;;;;27.33;12.02;;;-6.00;1.00;;;;;;4407539;28;656506;-74
2023/03/01 04:49:06;;;;;;;24.70;10.83;;;-6.00;1.00;;;;;;4405418;28;657705;-75
2023/03/01 04:51:54;;;;;;;21.43;9.40;;;-6.00;1.00;;;;;;4422376;28;658515;-75
2023/03/01 04:54:41;;;;;;;27.67;11.97;;;-6.00;1.00;;;;;;4402862;28;656796;-74
2023/03/01 04:57:28;;;;;;;33.37;14.47;;;-6.00;1.00;;;;;;4421908;28;658056;-74
2023/03/01 05:00:22;;;;;;;46.05;17.40;;;-6.00;1.00;;;;;;4402405;28;657763;-74
2023/03/01 05:03:10;;;;;;;40.30;16.33;;;-6.00;1.00;;;;;;4397280;28;657699;-74
2023/03/01 05:05:59;;;;;;;27.80;13.80;;;-5.90;1.00;;;;;;4400671;28;657949;-74
2023/03/01 05:08:46;;;;;;;46.08;17.13;;;-6.00;1.00;;;;;;4400832;28;657755;-74
2023/03/01 05:11:35;;;;;;;33.30;13.70;;;-6.00;1.00;;;;;;4426098;28;658056;-74
2023/03/01 05:14:22;;;;;;;27.20;11.43;;;-6.00;1.00;;;;;;4398568;28;657769;-75
2023/03/01 05:17:10;;;;;;;27.70;13.43;;;-5.90;1.00;;;;;;4423118;28;658138;-75
2023/03/01 05:19:59;;;;;;;29.17;11.90;;;-5.90;1.00;;;;;;4432401;28;658391;-74
2023/03/01 05:22:46;;;;;;;28.45;11.73;;;-5.90;1.00;;;;;;4408077;28;658271;-74
2023/03/01 05:25:34;;;;;;;30.10;11.13;;;-5.80;1.00;;;;;;4428777;28;657990;-74
2023/03/01 05:28:21;;;;;;;36.00;13.00;;;-5.90;1.00;;;;;;4405433;28;658026;-74
2023/03/01 05:31:09;;;;;;;30.83;12.93;;;-5.90;1.00;;;;;;4423165;28;657821;-74
2023/03/01 05:33:56;;;;;;;29.73;11.37;;;-5.90;1.00;;;;;;4400210;28;658070;-74
2023/03/01 05:36:45;;;;;;;38.93;12.47;;;-5.80;1.00;;;;;;4425962;28;657924;-74
2023/03/01 05:39:32;;;;;;;34.50;12.50;;;-5.80;1.00;;;;;;4404858;28;657861;-74
2023/03/01 05:42:19;;;;;;;26.93;12.10;;;-5.80;1.00;;;;;;4430425;28;657100;-74
2023/03/01 05:45:09;;;;;;;50.03;16.33;;;-5.80;1.00;;;;;;4404132;28;658533;-75
2023/03/01 05:47:56;;;;;;;71.60;20.33;;;-5.70;1.00;;;;;;4410025;28;657992;-74
2023/03/01 05:50:44;;;;;;;69.20;21.90;;;-5.70;1.00;;;;;;4425745;28;657659;-74
2023/03/01 05:53:33;;;;;;;60.80;22.73;;;-5.60;1.00;;;;;;4405276;28;658021;-74
2023/03/01 05:56:22;;;;;;;92.03;30.07;;;-5.60;1.00;;;;;;4406920;28;657375;-74
2023/03/01 05:59:09;;;;;;;60.10;23.50;;;-5.50;1.00;;;;;;4425679;28;657590;-74
2023/03/01 06:01:56;;;;;;;48.70;18.97;;;-5.40;1.00;;;;;;4406107;28;657501;-74
2023/03/01 06:04:43;;;;;;;37.72;15.15;;;-5.30;1.00;;;;;;4430600;28;657890;-75
2023/03/01 06:07:30;;;;;;;25.27;11.23;;;-5.20;1.00;;;;;;4404334;28;658981;-75
2023/03/01 06:10:19;;;;;;;30.83;11.80;;;-5.10;1.00;;;;;;4423339;28;658481;-76
2023/03/01 06:13:07;;;;;;;32.43;12.70;;;-5.00;1.00;;;;;;4406480;28;658256;-76
2023/03/01 06:15:54;;;;;;;33.13;12.50;;;-4.80;1.00;;;;;;4426312;28;657163;-76
2023/03/01 06:18:41;;;;;;;34.97;12.73;;;-4.70;1.00;;;;;;4406165;28;657823;-75
2023/03/01 06:21:29;;;;;;;25.77;11.70;;;-4.60;1.00;;;;;;4421788;28;657705;-74
2023/03/01 06:24:16;;;;;;;36.27;12.27;;;-4.40;1.00;;;;;;4404292;28;657630;-74
2023/03/01 06:27:04;;;;;;;43.43;14.87;;;-4.30;1.00;;;;;;4426920;28;657734;-74
2023/03/01 06:29:52;;;;;;;34.83;12.03;;;-4.10;1.00;;;;;;4405713;28;658609;-74
2023/03/01 06:32:41;;;;;;;27.03;12.00;;;-3.90;1.00;;;;;;4422977;28;658940;-74
2023/03/01 06:35:30;;;;;;;34.87;12.83;;;-3.90;1.00;;;;;;4404607;28;658565;-74
2023/03/01 06:38:18;;;;;;;30.30;11.50;;;-3.70;1.00;;;;;;4404653;28;658348;-74
2023/03/01 06:41:06;;;;;;;33.07;12.17;;;-3.60;1.00;;;;;;4406475;28;657347;-75
2023/03/01 06:43:55;;;;;;;44.20;16.03;;;-3.40;1.00;;;;;;4435988;28;658113;-74
2023/03/01 06:46:42;;;;;;;30.17;12.37;;;-3.20;1.00;;;;;;4404987;28;658019;-75
2023/03/01 06:49:30;;;;;;;34.17;12.50;;;-3.10;1.00;;;;;;4421898;28;657925;-75
2023/03/01 06:52:17;;;;;;;31.67;13.27;;;-2.90;99.90;;;;;;4400335;28;658190;-75
2023/03/01 06:55:05;;;;;;;37.90;15.83;;;-2.70;1.00;;;;;;4429646;28;658427;-75
2023/03/01 06:57:55;;;;;;;38.93;16.03;;;-2.40;99.90;;;;;;4400480;28;658291;-75
2023/03/01 07:00:44;;;;;;;38.22;15.13;;;-2.20;1.00;;;;;;4399089;28;659085;-73
2023/03/01 07:03:31;;;;;;;40.70;16.17;;;-2.00;99.90;;;;;;4400122;28;657474;-74
2023/03/01 07:06:19;;;;;;;39.43;17.30;;;-1.80;1.00;;;;;;4418049;28;658724;-74
2023/03/01 07:09:06;;;;;;;40.87;16.60;;;-1.70;1.00;;;;;;4403066;28;657800;-74
2023/03/01 07:11:53;;;;;;;39.63;16.07;;;-1.50;1.00;;;;;;4423042;28;657490;-74
2023/03/01 07:14:41;;;;;;;41.33;16.43;;;-1.30;99.90;;;;;;4405996;28;657365;-74
2023/03/01 07:17:29;;;;;;;43.30;17.08;;;-1.10;30.10;;;;;;4428053;28;659571;-74
2023/03/01 07:20:17;;;;;;;57.80;21.87;;;-0.80;1.00;;;;;;4403259;28;658917;-74
2023/03/01 07:23:04;;;;;;;59.77;22.37;;;-0.70;1.00;;;;;;4426814;28;657358;-74
2023/03/01 07:25:54;;;;;;;41.57;17.03;;;-0.50;1.00;;;;;;4404262;28;659497;-75
2023/03/01 07:28:42;;;;;;;46.23;18.17;;;-0.30;1.00;;;;;;4402850;28;658128;-74
2023/03/01 07:31:29;;;;;;;57.73;24.53;;;-0.10;1.00;;;;;;4424062;28;657466;-74
2023/03/01 07:34:17;;;;;;;55.03;24.30;;;0.10;1.00;;;;;;4402630;28;657518;-74
2023/03/01 07:37:05;;;;;;;49.30;21.83;;;0.30;1.00;;;;;;4413388;28;657931;-74
2023/03/01 07:39:52;;;;;;;46.97;21.73;;;0.50;1.00;;;;;;4425236;28;657680;-75
2023/03/01 07:42:40;;;;;;;53.00;23.90;;;0.50;1.00;;;;;;4422421;28;656492;-75
2023/03/01 07:45:27;;;;;;;55.23;22.50;;;0.70;1.00;;;;;;4427944;28;657167;-74
2023/03/01 07:48:15;;;;;;;57.07;22.80;;;0.80;1.00;;;;;;4427695;28;656703;-72
2023/03/01 07:51:05;;;;;;;53.70;23.40;;;0.90;1.00;;;;;;4426151;28;657747;-72
2023/03/01 07:53:52;;;;;;;49.45;21.63;;;1.10;1.00;;;;;;4406747;28;657269;-73
2023/03/01 07:56:40;;;;;;;47.00;22.33;;;1.20;1.00;;;;;;4422494;28;655992;-73
2023/03/01 07:59:28;;;;;;;43.55;21.75;;;1.40;1.00;;;;;;4406434;28;657682;-73
2023/03/01 08:02:16;;;;;;;44.30;20.67;;;1.50;1.00;;;;;;4406255;28;656072;-72
2023/03/01 08:05:03;;;;;;;43.87;19.50;;;1.70;1.00;;;;;;4432819;28;656979;-72
2023/03/01 08:07:52;;;;;;;37.10;16.73;;;1.80;1.00;;;;;;4408385;28;657670;-72
2023/03/01 08:10:39;;;;;;;36.63;17.20;;;1.90;99.90;;;;;;4424552;28;656676;-73
2023/03/01 08:13:26;;;;;;;39.40;16.73;;;1.90;1.00;;;;;;4401257;28;657717;-73
2023/03/01 08:16:14;;;;;;;34.57;17.10;;;2.00;99.90;;;;;;4420923;28;657641;-73
2023/03/01 08:19:05;;;;;;;31.73;16.37;;;2.00;99.90;;;;;;4400969;28;657634;-73
2023/03/01 08:21:52;;;;;;;41.43;17.27;;;2.30;99.90;;;;;;4398210;28;657828;-72
2023/03/01 08:24:41;;;;;;;37.90;17.90;;;2.50;99.90;;;;;;4422346;28;657921;-73
2023/03/01 08:27:28;;;;;;;36.93;15.97;;;2.80;99.90;;;;;;4399171;28;658110;-72
2023/03/01 08:30:16;;;;;;;36.57;16.13;;;2.80;99.90;;;;;;4408328;28;657536;-72
2023/03/01 08:33:03;;;;;;;27.20;12.87;;;3.00;99.90;;;;;;4423084;28;658722;-70
2023/03/01 08:35:50;;;;;;;35.50;16.42;;;3.30;99.90;;;;;;4400760;28;657746;-71
2023/03/01 08:38:37;;;;;;;37.20;16.07;;;3.20;99.90;;;;;;4425268;28;657665;-71
2023/03/01 08:41:27;;;;;;;34.93;15.97;;;3.30;99.90;;;;;;4418621;28;657446;-70
2023/03/01 08:44:16;;;;;;;32.93;15.03;;;3.20;99.90;;;;;;4420103;28;657754;-70
2023/03/01 08:47:04;;;;;;;33.70;14.47;;;3.30;99.90;;;;;;4407558;28;658696;-71
2023/03/01 08:49:52;;;;;;;31.80;14.27;;;3.50;99.90;;;;;;4402330;28;658025;-71
2023/03/01 08:52:39;;;;;;;30.43;13.23;;;3.70;99.90;;;;;;4423267;28;657270;-72
2023/03/01 08:55:27;;;;;;;34.17;14.63;;;3.60;99.90;;;;;;4241322;28;658071;-71
2023/03/01 08:58:15;;;;;;;32.23;14.73;;;3.50;99.90;;;;;;4249997;28;657580;-71
2023/03/01 09:01:07;;;;;;;32.57;14.03;;;3.80;99.90;;;;;;4349839;28;657553;-71
2023/03/01 09:03:55;;;;;;;38.07;14.63;;;3.80;99.90;;;;;;4425013;28;657861;-71
2023/03/01 09:06:42;;;;;;;32.63;14.37;;;4.10;99.90;;;;;;4423964;28;658662;-71
2023/03/01 09:09:30;;;;;;;30.70;15.20;;;4.00;99.90;;;;;;4420563;28;657509;-72
2023/03/01 09:12:17;;;;;;;37.67;15.07;;;4.10;99.90;;;;;;4420248;28;659006;-72
2023/03/01 09:15:08;;;;;;;29.63;13.77;;;4.70;99.90;;;;;;4420213;28;657646;-72
2023/03/01 09:17:55;;;;;;;29.77;14.75;;;5.10;99.90;;;;;;4397389;28;657861;-72
2023/03/01 09:20:42;;;;;;;30.57;14.73;;;5.00;99.90;;;;;;4429974;28;658800;-72
2023/03/01 09:23:30;;;;;;;33.00;14.77;;;5.20;99.90;;;;;;4415568;28;657808;-72
2023/03/01 09:26:21;;;;;;;32.03;13.93;;;5.40;99.90;;;;;;4413286;28;658602;-72
2023/03/01 09:29:09;;;;;;;30.53;14.17;;;5.40;99.90;;;;;;4409157;28;658195;-72
2023/03/01 09:31:58;;;;;;;33.87;14.10;;;5.50;99.90;;;;;;4402849;28;657527;-72
2023/03/01 09:35:04;;;;;;;32.65;14.32;;;5.80;99.90;;;;;;4396429;28;657326;-72
2023/03/01 09:37:51;;;;;;;32.40;13.77;;;5.40;99.90;;;;;;4379113;28;658244;-72
2023/03/01 09:40:42;;;;;;;26.27;12.83;;;5.50;99.90;;;;;;4426867;28;658196;-72
2023/03/01 09:43:32;;;;;;;27.23;13.43;;;6.00;99.90;;;;;;4406047;28;657607;-72
2023/03/01 09:46:19;;;;;;;29.27;13.80;;;6.50;99.90;;;;;;4412460;28;657318;-72
2023/03/01 09:49:11;;;;;;;30.15;14.25;;;6.40;99.90;;;;;;4401571;28;657604;-72
2023/03/01 09:52:01;;;;;;;28.93;13.63;;;6.90;99.90;;;;;;4407558;28;658234;-72
2023/03/01 09:54:49;;;;;;;26.30;13.67;;;7.20;99.90;;;;;;4401448;28;658149;-72
2023/03/01 09:57:39;;;;;;;27.93;13.77;;;7.30;99.90;;;;;;4399730;28;657605;-72
2023/03/01 10:00:31;;;;;;;26.43;13.57;;;7.60;99.90;;;;;;4406528;28;657725;-72
2023/03/01 10:03:22;;;;;;;30.40;13.80;;;8.20;99.90;;;;;;4400009;28;657530;-72
2023/03/01 10:06:13;;;;;;;29.77;13.57;;;8.30;99.90;;;;;;4418112;28;657590;-72
2023/03/01 10:09:03;;;;;;;30.30;14.17;;;8.00;99.90;;;;;;4402406;28;658122;-72
2023/03/01 10:11:53;;;;;;;24.37;13.07;;;8.50;99.90;;;;;;4405376;28;659699;-72
2023/03/01 10:14:42;;;;;;;31.90;14.07;;;9.40;99.90;;;;;;4411342;28;657573;-73
2023/03/01 10:17:34;;;;;;;28.40;12.90;;;9.90;99.90;;;;;;4421519;28;657422;-72
2023/03/01 10:20:22;;;;;;;30.27;14.00;;;10.10;99.90;;;;;;4409149;28;657707;-72
2023/03/01 10:23:11;;;;;;;30.30;14.00;;;9.90;99.90;;;;;;4424852;28;658633;-72
2023/03/01 10:26:08;;;;;;;30.53;14.50;;;9.30;99.90;;;;;;4401114;28;658236;-73
2023/03/01 10:29:00;;;;;;;26.23;12.67;;;8.50;99.90;;;;;;4392081;28;657286;-72
2023/03/01 10:31:48;;;;;;;28.70;14.20;;;8.20;99.90;;;;;;4400107;28;657820;-74
2023/03/01 10:34:36;;;;;;;28.13;13.93;;;7.90;99.90;;;;;;4403454;28;657763;-74
2023/03/01 10:37:25;;;;;;;26.77;13.27;;;7.30;99.90;;;;;;4423444;28;657786;-76
2023/03/01 10:40:14;;;;;;;30.17;13.83;;;7.30;99.90;;;;;;4400613;28;658143;-75
2023/03/01 10:43:02;;;;;;;28.03;13.43;;;7.90;99.90;;;;;;4409494;28;657824;-75
2023/03/01 10:45:50;;;;;;;27.10;13.67;;;7.70;99.90;;;;;;4415069;28;657317;-74
2023/03/01 10:48:37;;;;;;;28.40;14.23;;;8.30;99.90;;;;;;4429977;28;657339;-75
2023/03/01 10:51:25;;;;;;;29.10;14.27;;;8.80;99.90;;;;;;4421569;28;657803;-74
2023/03/01 10:54:18;;;;;;;29.03;13.27;;;9.10;99.90;;;;;;4427357;28;657678;-74
2023/03/01 10:57:07;;;;;;;27.43;13.10;;;9.50;99.90;;;;;;4388734;28;657250;-74
2023/03/01 11:00:04;;;;;;;28.53;14.37;;;10.00;99.90;;;;;;4425928;28;657840;-74
2023/03/01 11:03:03;;;;;;;30.23;14.13;;;10.10;99.90;;;;;;4377883;28;659529;-74
2023/03/01 11:05:55;;;;;;;29.30;14.43;;;9.80;99.90;;;;;;4382710;28;658908;-74
2023/03/01 11:08:43;;;;;;;22.53;13.00;;;10.10;99.90;;;;;;4399576;28;658368;-74
2023/03/01 11:11:32;;;;;;;29.40;13.63;;;10.20;99.90;;;;;;4406295;28;658537;-74
2023/03/01 11:14:22;;;;;;;29.60;13.97;;;10.40;99.90;;;;;;4429260;28;658591;-74
2023/03/01 11:17:14;;;;;;;35.80;16.80;;;10.80;99.90;;;;;;4378784;28;658438;-74
2023/03/01 11:20:04;;;;;;;32.17;16.20;;;11.30;99.90;;;;;;4414245;28;658723;-73
2023/03/01 11:22:53;;;;;;;36.85;15.88;;;11.50;99.90;;;;;;4405303;28;660036;-75
2023/03/01 11:25:41;;;;;;;34.80;16.50;;;11.10;99.90;;;;;;4411215;28;658488;-75
2023/03/01 11:28:29;;;;;;;48.40;16.23;;;11.20;99.90;;;;;;4432084;28;658857;-74
2023/03/01 11:31:18;;;;;;;50.00;17.37;;;11.80;99.90;;;;;;4407610;28;658481;-75
2023/03/01 11:34:07;;;;;;;47.13;21.37;;;12.50;99.90;;;;;;4404576;28;659234;-74
2023/03/01 11:36:57;;;;;;;27.83;14.77;;;13.20;99.90;;;;;;4424827;28;658679;-73
2023/03/01 11:39:48;;;;;;;25.33;11.97;;;12.90;99.90;;;;;;4421859;28;658424;-74
2023/03/01 11:42:45;;;;;;;21.10;12.37;;;13.00;99.90;;;;;;4392573;28;659102;-74
2023/03/01 11:45:35;;;;;;;26.53;14.10;;;12.80;99.90;;;;;;4383149;28;658478;-74
2023/03/01 11:48:38;;;;;;;24.77;13.10;;;13.00;99.90;;;;;;4403181;28;658623;-74
2023/03/01 11:51:33;;;;;;;23.37;12.63;;;12.80;99.90;;;;;;4370190;28;658656;-74
2023/03/01 11:54:28;;;;;;;25.60;13.70;;;12.50;99.90;;;;;;4373582;28;658783;-74
2023/03/01 11:57:19;;;;;;;26.97;14.13;;;12.30;99.90;;;;;;4376233;28;659344;-74
2023/03/01 12:00:16;;;;;;;31.13;15.63;;;13.00;99.90;;;;;;4399182;28;658909;-75
2023/03/01 12:03:23;;;;;;;24.97;12.43;;;13.10;99.90;;;;;;4407699;28;658983;-75
2023/03/01 12:06:25;;;;;;;26.87;12.93;;;13.30;99.90;;;;;;4380697;28;658566;-73
2023/03/01 12:09:22;;;;;;;24.90;12.40;;;13.10;99.90;;;;;;4374513;28;658726;-75
2023/03/01 12:12:37;;;;;;;20.53;11.13;;;13.20;99.90;;;;;;4399019;28;659626;-74
2023/03/01 12:15:48;;;;;;;25.87;12.00;;;12.90;99.90;;;;;;4397228;28;658990;-74
2023/03/01 12:18:55;;;;;;;23.13;11.53;;;12.50;99.90;;;;;;4399918;28;658595;-74
2023/03/01 12:21:55;;;;;;;22.07;10.90;;;12.60;99.90;;;;;;4403620;28;659228;-73
2023/03/01 12:24:52;;;;;;;19.87;10.83;;;13.20;99.90;;;;;;4382121;28;659273;-73
2023/03/01 12:28:07;;;;;;;26.00;11.50;;;13.30;99.90;;;;;;4403524;28;658268;-73
2023/03/01 12:31:13;;;;;;;17.70;10.93;;;13.50;99.90;;;;;;4407012;28;658361;-73
2023/03/01 12:34:04;;;;;;;20.60;11.53;;;14.10;99.90;;;;;;4384804;28;658968;-73
2023/03/01 12:36:59;;;;;;;18.23;10.57;;;13.80;99.90;;;;;;4399924;28;660544;-73
2023/03/01 12:39:52;;;;;;;32.57;15.33;;;14.20;99.90;;;;;;4377562;28;658931;-73
2023/03/01 12:42:42;;;;;;;21.17;10.87;;;14.40;99.90;;;;;;4401569;28;658356;-74
2023/03/01 12:45:46;;;;;;;26.13;12.00;;;14.90;99.90;;;;;;4394789;28;659045;-73
2023/03/01 12:48:41;;;;;;;24.50;11.63;;;15.20;99.90;;;;;;4400559;28;659419;-76
2023/03/01 12:51:30;;;;;;;21.53;10.83;;;14.80;99.90;;;;;;4408533;28;659229;-76
2023/03/01 12:54:21;;;;;;;18.23;10.20;;;14.60;99.90;;;;;;4402486;28;659100;-76
2023/03/01 12:57:13;;;;;;;21.47;9.87;;;14.60;99.90;;;;;;4395918;28;658986;-76
2023/03/01 13:00:09;;;;;;;23.63;11.20;;;15.10;99.90;;;;;;4384844;28;657680;-75
2023/03/01 13:02:59;;;;;;;28.03;12.43;;;15.80;99.90;;;;;;4371719;28;659035;-75
2023/03/01 13:05:52;;;;;;;24.27;11.53;;;15.80;99.90;;;;;;4399669;28;659103;-75
2023/03/01 13:08:42;;;;;;;19.27;9.73;;;16.00;99.90;;;;;;4421725;28;658490;-76
2023/03/01 13:11:31;;;;;;;18.13;10.10;;;16.40;99.90;;;;;;4421102;28;657462;-75
2023/03/01 13:14:46;;;;;;;20.00;10.30;;;15.80;99.90;;;;;;4405156;28;659109;-75
2023/03/01 13:17:40;;;;;;;17.83;9.80;;;16.10;99.90;;;;;;4395290;28;658972;-75
2023/03/01 13:20:31;;;;;;;22.83;10.63;;;16.20;99.90;;;;;;4399300;28;657582;-75
2023/03/01 13:23:26;;;;;;;20.67;11.77;;;16.50;99.90;;;;;;4395094;28;659418;-74
2023/03/01 13:26:15;;;;;;;20.50;11.40;;;17.10;99.90;;;;;;4392259;28;659225;-74
2023/03/01 13:29:03;;;;;;;20.80;11.03;;;17.40;99.90;;;;;;4392655;28;659720;-74
2023/03/01 13:32:00;;;;;;;16.83;10.17;;;17.30;99.90;;;;;;4396618;28;658733;-74
2023/03/01 13:34:52;;;;;;;17.33;9.67;;;17.70;99.90;;;;;;4402963;28;659013;-74
2023/03/01 13:37:39;;;;;;;48.33;19.40;;;18.40;99.90;;;;;;4400020;28;658030;-75
2023/03/01 13:41:00;;;;;;;37.30;13.83;;;18.50;99.90;;;;;;4396433;28;658659;-74
2023/03/01 13:43:47;;;;;;;61.30;20.40;;;18.80;99.90;;;;;;4369637;28;658988;-74
2023/03/01 13:46:36;;;;;;;20.47;10.17;;;18.90;99.90;;;;;;4424342;28;658923;-75
2023/03/01 13:49:24;;;;;;;68.77;26.30;;;19.50;99.90;;;;;;4396372;28;659341;-74
2023/03/01 13:52:33;;;;;;;68.00;24.77;;;18.90;99.90;;;;;;4395163;28;659191;-74
2023/03/01 13:55:23;;;;;;;60.80;22.07;;;19.80;99.90;;;;;;4405394;28;659138;-74
2023/03/01 13:58:22;;;;;;;21.93;11.00;;;20.80;99.90;;;;;;4401752;28;659169;-74
2023/03/01 14:01:22;;;;;;;31.70;12.90;;;21.20;99.90;;;;;;4396561;28;658815;-75
2023/03/01 14:04:21;;;;;;;62.78;21.55;;;21.10;99.90;;;;;;4401391;28;659452;-74
2023/03/01 14:07:12;;;;;;;47.00;19.33;;;21.20;99.90;;;;;;4394386;28;659360;-75
2023/03/01 14:10:00;;;;;;;21.30;11.70;;;21.60;99.90;;;;;;4404002;28;659057;-74
2023/03/01 14:12:49;;;;;;;20.37;10.37;;;21.90;99.90;;;;;;4396039;28;659645;-74
2023/03/01 14:15:38;;;;;;;19.10;10.70;;;21.40;99.90;;;;;;4398590;28;658808;-74
2023/03/01 14:18:26;;;;;;;25.37;11.10;;;22.20;99.90;;;;;;4404993;28;658724;-74
2023/03/01 14:21:15;;;;;;;17.13;9.03;;;23.60;99.90;;;;;;4417547;28;658946;-75